Port Leyden, NY

1:52 AM EST on December 18, 2014 (GMT -0500)
KENTNER RD., TUGHILL PLATEAU | Change Station
CLOSE
Current Station
Personal Weather Station
Location: Constableville, NY
Elevation: 1253 ft
Nearby Weather Stations

Elev 1253 ft 43.59 °N, 75.38 °W | Updated 15 seconds ago

Overcast
Overcast
32.3 °F
Feels Like 29 °F
N
3.3
Wind Variable Wind from WNW
Gusts 3.3 mph

Today
High -- | Low -- °F
--% Chance of Precip.
Yesterday
High -- | Low -- °F
Precip. -- in
7:29 AM 4:26 PM
Waning Crescent, 16% visible
Pressure 29.89 in
Visibility 8.0 miles
Clouds Overcast 900 ft
Windchill 29 °F
Dew Point 29 °F
Humidity 89%
Rainfall 0.00 in
Snow Depth Not available.
UV 0 out of 12
Pollen .10 out of 12
Air Quality Not available.
Flu Activity Not available.
METAR KRME 180553Z AUTO 28012KT 8SM OVC009 00/M01 A2988 RMK AO2 SNE51 CIG 008V013 SLP122 P0001 60001 T00001011 10006 20000 50000

More Conditions Fewer Conditions

Pressure 29.89 in
Visibility 8.0 miles
Clouds Overcast 900 ft
Windchill 29 °F
Dew Point 29 °F
Humidity 89%
Rainfall 0.00 in
Snow Depth Not available.
UV 0 out of 12
Pollen .10 out of 12
Air Quality Not available.
Flu Activity Not available.
METAR KRME 180553Z AUTO 28012KT 8SM OVC009 00/M01 A2988 RMK AO2 SNE51 CIG 008V013 SLP122 P0001 60001 T00001011 10006 20000 50000

More Conditions Fewer Conditions

10-Day Weather Forecast

Almanac

Astronomy

Dec. 18, 2014 Rise Set
Actual Time
Civil Twilight
Nautical Twilight
Astronomical Twilight
Moon
Length of Visible Light
Length of Day
Tomorrow will be .
, % of the Moon is Illuminated

Today's Extremes

State Highs State Lows

Community

WunderPhotos

Upload Photos

1,778,897 photos uploaded!

WunderBlogs® & News

Nearby

Air Quality

  Air Quality AQ Index Pollutant
Not available.

Snow Depth

Station Depth Elevation

Earthquake Activity

City Distance Mag. Time & Date
Minimum magnitude displayed is 2.5.

Coastal Water Temperatures

Place Temperature

Nearby Weather Stations